Sweeney Granite Mountains, California Weather observations

Data are for 10 minute period ending at time listed.
 Day   Time   Solar   Ave.   Ave.  Ave.  Vector  Max.   Baro.   Total    
  of    of     Rad.   Air    Rel.  Wind   Wind   Wind  Press.  Precip.   
Year   Day            Temp.  Hum.  Speed  Dir.   Gust                    
2015   (PST)  Kw/m2    F      %     mph   deg.    mph    mb.     in.     
-------------------------------------------------------------------------
 144    2:10   0.00   55.3    57   13.0   318    18.4   865.9    0.00 
 144    2:20   0.00   54.8    59   14.7   314    23.4   865.9    0.00 
 144    2:30   0.00   54.2    61   15.0   317    21.4   865.8    0.00 
 144    2:40   0.00   53.4    64   16.3   314    24.4   865.8    0.00 
 144    2:50   0.00   53.3    64   16.9   314    25.6   865.8    0.00 
 144    3:00   0.00   53.1    65   17.8   315    25.0   865.8    0.00 
 144    3:10   0.00   52.7    67   17.0   309    28.6   865.8    0.00 
 144    3:20   0.00   52.6    67   15.1   312    21.7   865.8    0.00 
 144    3:30   0.00   53.4    63   12.5   316    17.3   865.8    0.00 
 144    3:40   0.00   54.0    60    9.8   309    13.6   865.7    0.00 
 144    3:50   0.00   54.4    59   11.1   310    16.4   865.7    0.00 
 144    4:00   0.00   54.3    60   12.1   308    17.8   865.8    0.00 
 144    4:10   0.00   54.8    58   11.7   312    16.4   865.8    0.00 
 144    4:20   0.00   55.0    57   10.7   309    18.0   865.8    0.00 
 144    4:30   0.00   55.2    56   11.6   303    17.1   865.9    0.00 
 144    4:40   0.00   55.7    53   11.5   307    17.6   865.9    0.00 
 144    4:50   0.00   56.2    51   10.8   306    15.1   866.0    0.00 
 144    5:00   0.00   56.8    49   11.6   306    16.4   866.2    0.00 
 144    5:10   0.01   57.1    48   12.4   306    16.7   866.3    0.00 
 144    5:20   0.02   57.3    47   11.0   304    16.8   866.3    0.00 
 144    5:30   0.03   57.6    47   12.0   311    16.4   866.4    0.00 
 144    5:40   0.04   57.6    47   10.8   310    15.3   866.5    0.00 
 144    5:50   0.07   57.9    46   11.4   311    17.2   866.6    0.00 
 144    6:00   0.08   58.1    46   12.4   310    17.0   866.9    0.00 
 144    6:10   0.09   58.1    47   11.8   309    17.4   867.0    0.00 
 144    6:20   0.12   58.5    47   10.5   308    15.1   867.0    0.00 
 144    6:30   0.11   59.1    46    6.3   286    11.5   867.1    0.00 
 144    6:40   0.11   58.6    47    4.1   154     9.6   867.3    0.00 
 144    6:50   0.16   60.0    45    1.3   146     3.4   867.3    0.00 
 144    7:00   0.37   61.9    43    2.4   202     6.2   867.3    0.00 
 144    7:10   0.46   62.9    41    4.6   284     8.0   867.5    0.00 
 144    7:20   0.48   63.8    39    3.1   128     7.0   867.5    0.00 
 144    7:30   0.51   64.0    39    5.5    98    10.7   867.7    0.00 
 144    7:40   0.55   63.0    42    6.6   107    11.2   867.7    0.00 
 144    7:50   0.58   63.2    43    6.2   102    10.3   867.8    0.00 
 144    8:00   0.61   63.2    43    6.4   103    11.5   867.9    0.00 
 144    8:10   0.64   63.6    42    5.6   123    12.2   868.0    0.00 
 144    8:20   0.68   64.5    40    2.9    84     6.8   868.0    0.00 
 144    8:30   0.71   65.1    39    3.6   116     7.1   868.0    0.00 
 144    8:40   0.74   66.3    38    2.9   130     7.4   867.9    0.00 
 144    8:50   0.77   65.7    40    3.5   211     9.8   868.0    0.00 
 144    9:00   0.79   65.9    40    5.1   124    10.7   868.0    0.00 
 144    9:10   0.83   66.1    40    2.8   108     8.3   868.1    0.00 
 144    9:20   0.86   66.1    40    4.3   148    10.0   868.2    0.00 
 144    9:30   0.89   65.9    40    5.5   104    10.3   868.2    0.00 
 144    9:40   0.84   65.4    41    4.0   178     9.3   868.2    0.00 
 144    9:50   0.43   64.8    42    5.0   168    11.0   868.3    0.00 
 144   10:00   0.86   64.6    42    4.8    42    12.9   868.3    0.00 
 144   10:10   0.98   67.3    38    4.7   146    10.4   868.2    0.00 
 144   10:20   1.01   66.4    40    4.8   177    11.8   868.3    0.00 
 144   10:30   0.41   65.9    40    3.0   259     7.0   868.4    0.00 
 144   10:40   0.26   65.2    42    2.6    84     7.5   868.5    0.00 
 144   10:50   0.18   64.3    44    4.9   322    10.9   868.4    0.00 
 144   11:00   0.71   66.1    41    4.8   301    10.2   868.3    0.00 
 144   11:10   1.03   68.1    38    4.9   345    11.2   868.3    0.00 
 144   11:20   1.07   69.8    35    3.6   330     8.2   868.2    0.00 
 144   11:30   0.60   69.2    34    5.0   298    10.7   868.2    0.00 
 144   11:40   1.02   69.0    33    4.7   282    12.6   868.1    0.00 
 144   11:50   0.94   69.3    33    3.8   269     8.9   868.0    0.00 
 144   12:00   0.55   68.8    34    4.6   313    11.8   868.0    0.00 
 144   12:10   0.92   68.6    33    3.4    36    10.4   867.9    0.00 
 144   12:20   1.08   70.4    31    4.4    90    10.8   867.9    0.00 
 144   12:30   0.75   71.1    30    7.8    90    14.1   867.8    0.00 
 144   12:40   0.39   68.4    31    5.0    80     9.9   867.7    0.00 
 144   12:50   0.55   69.2    30    3.4   118     8.0   867.7    0.00 
 144   13:00   1.09   70.8    30    4.1   330     8.8   867.6    0.00 
 144   13:10   1.20   72.0    30    7.0   251    14.0   867.4    0.00 
 144   13:20   0.63   72.2    30    3.9   259     9.7   867.4    0.00 
 144   13:30   0.63   70.8    31    6.0   262    12.0   867.4    0.00 
 144   13:40   0.89   71.1    31    4.8   250    11.3   867.3    0.00 
 144   13:50   0.78   72.6    29    3.6    43     8.6   867.2    0.00 
 144   14:00   0.25   70.5    31    2.8   358     7.5   867.1    0.00 
 144   14:10   0.16   69.0    33    5.2   298    13.8   867.0    0.00 
 144   14:20   0.17   68.8    33    5.8   253    10.9   867.0    0.00 
 144   14:30   0.20   68.7    33    4.1   208     9.4   867.0    0.00 
 144   14:40   0.22   69.2    32    1.5    82     4.0   866.9    0.00 
 144   14:50   0.18   70.1    31    2.2   174     7.5   866.7    0.00 
 144   15:00   0.20   70.0    31    2.6   257    11.7   866.7    0.00 
 144   15:10   0.20   69.3    32    3.8   222     9.6   866.7    0.00 
 144   15:20   0.19   69.2    32    5.4   209     9.4   866.6    0.00 
 144   15:30   0.19   69.1    32    3.9   204    11.4   866.5    0.00 
 144   15:40   0.30   69.2    31    5.0   211    10.2   866.5    0.00 
 144   15:50   0.18   70.4    30    2.8   238     6.6   866.5    0.00 
 144   16:00   0.16   70.0    30    2.2   130     7.5   866.5    0.00 
 144   16:10   0.12   69.5    31    3.2   182     7.2   866.4    0.00 
 144   16:20   0.18   69.9    30    3.6   222     7.0   866.3    0.00 
 144   16:30   0.41   70.8    29    3.7   221     7.5   866.3    0.00 
 144   16:40   0.32   72.0    28    3.3   184     9.7   866.2    0.00 
 144   16:50   0.40   72.0    28    3.8   162     9.9   866.2    0.00 
 144   17:00   0.39   72.4    27    4.4   189     9.4   866.2    0.00 
 144   17:10   0.32   72.8    26    3.1   206    10.2   866.2    0.00 
 144   17:20   0.25   72.1    27    5.1   222    12.1   866.2    0.00 
 144   17:30   0.21   70.9    28    5.9   228    11.9   866.3    0.00 
 144   17:40   0.17   70.2    29    6.3   235    10.5   866.3    0.00 
 144   17:50   0.03   68.9    30    3.3   245     8.0   866.4    0.00 
 144   18:00   0.02   68.1    31    2.9   252     6.6   866.5    0.00 
 144   18:10   0.01   67.8    31    2.6   258     5.6   866.4    0.00 
 144   18:20   0.01   67.6    31    4.3   241     7.9   866.5    0.00 
 144   18:30   0.01   67.4    32    3.6   249     6.6   866.6    0.00 
 144   18:40   0.00   67.1    32    3.2   241     6.6   866.6    0.00 
 144   18:50   0.00   66.4    32    1.9   273     4.1   866.6    0.00 
 144   19:00   0.00   65.7    33    1.9   260     3.9   866.6    0.00 
 144   19:10   0.00   64.9    34    2.1   272     5.0   866.7    0.00 
 144   19:20   0.00   65.6    33    2.9   248     8.8   866.7    0.00 
 144   19:30   0.00   65.4    33    1.8   284     5.6   866.7    0.00 
 144   19:40   0.00   65.0    34    2.9   259     6.1   866.7    0.00 
 144   19:50   0.00   65.3    33    3.7   244     8.5   866.9    0.00 
 144   20:00   0.00   64.4    34    2.4   276     4.5   866.9    0.00 
 144   20:10   0.00   63.5    36    2.4   274     3.9   867.0    0.00 
 144   20:20   0.00   63.7    35    1.7   263     3.9   867.1    0.00 
 144   20:30   0.00   62.6    37    3.7   289     5.1   867.1    0.00 
 144   20:40   0.00   62.9    37    3.0   288     4.4   867.1    0.00 
 144   20:50   0.00   63.0    36    1.9   266     3.7   867.2    0.00 
 144   21:00   0.00   62.8    37    2.9   289     5.3   867.2    0.00 
 144   21:10   0.00   61.5    38    3.6   283     5.5   867.3    0.00 
 144   21:20   0.00   62.8    37    2.4   259     4.2   867.3    0.00 
 144   21:30   0.00   61.4    39    3.3   282     4.7   867.4    0.00 
 144   21:40   0.00   62.7    38    2.8   279     4.1   867.3    0.00 
 144   21:50   0.00   62.3    39    3.1   281     5.3   867.2    0.00 
 144   22:00   0.00   61.8    40    3.1   285     4.5   867.2    0.00 
 144   22:10   0.00   61.1    42    2.5   288     3.7   867.1    0.00 
 144   22:20   0.00   61.4    42    1.5   274     3.1   867.1    0.00 
 144   22:30   0.00   59.7    44    1.5   285     2.6   867.1    0.00 
 144   22:40   0.00   58.6    46    2.6   291     3.4   867.0    0.00 
 144   22:50   0.00   58.8    46    1.9   319     3.7   867.0    0.00 
 144   23:00   0.00   58.9    47    2.9   279     5.2   866.9    0.00 
 144   23:10   0.00   60.5    45    4.0   278     7.1   866.8    0.00 
 144   23:20   0.00   60.4    45    2.4   319     4.7   866.8    0.00 
 144   23:30   0.00   60.9    44    5.8   296     8.6   866.7    0.00 
 144   23:40   0.00   61.1    45    7.3   294    10.2   866.7    0.00 
 144   23:50   0.00   62.3    43    5.9   324     9.9   866.7    0.00 
 145    0:00   0.00   62.1    43    5.8   297     9.3   866.7    0.00 
 145    0:10   0.00   60.9    46    6.7   274     9.7   866.6    0.00 
 145    0:20   0.00   61.1    46    8.4   270    12.9   866.7    0.00 
 145    0:30   0.00   60.5    48    9.8   278    13.6   866.9    0.00 
 145    0:40   0.00   60.6    47   10.0   295    14.2   866.9    0.00 
 145    0:50   0.00   60.9    46    8.7   297    12.8   866.9    0.00 
 145    1:00   0.00   61.5    45    7.7   291    14.0   866.8    0.00 
 145    1:10   0.00   61.1    46    4.4   315    10.6   866.9    0.00 
 145    1:20   0.00   60.0    47    2.2   336     7.0   866.9    0.00 
 145    1:30   0.00   60.2    45    5.0   277     7.6   866.9    0.00 
 145    1:40   0.00   60.5    44    3.9   273     5.6   866.9    0.00 
 145    1:50   0.00   59.5    45    3.7   269     4.7   867.0    0.00 
 145    2:00   0.00   58.2    47    3.5   299     4.7   866.9    0.00 

Return to Sweeney Granite Mountains graphs page.


Western Regional Climate Center,wrcc@dri.edu